sensor_id;sensor_type;location;lat;lon;timestamp;P1;durP1;ratioP1;P2;durP2;ratioP2
49217;SDS011;35045;51.194;7.268;2023-05-16T00:00:48;14.25;;;10.10;;
49217;SDS011;35045;51.194;7.268;2023-05-16T00:03:15;13.60;;;10.23;;
49217;SDS011;35045;51.194;7.268;2023-05-16T00:05:41;14.50;;;9.38;;
49217;SDS011;35045;51.194;7.268;2023-05-16T00:08:07;11.93;;;9.05;;
49217;SDS011;35045;51.194;7.268;2023-05-16T00:10:33;11.70;;;8.63;;
49217;SDS011;35045;51.194;7.268;2023-05-16T00:12:59;9.52;;;7.43;;
49217;SDS011;35045;51.194;7.268;2023-05-16T00:15:26;9.75;;;6.30;;
49217;SDS011;35045;51.194;7.268;2023-05-16T00:17:55;8.55;;;6.13;;
49217;SDS011;35045;51.194;7.268;2023-05-16T00:20:24;8.95;;;6.35;;
49217;SDS011;35045;51.194;7.268;2023-05-16T00:22:52;10.05;;;6.55;;
49217;SDS011;35045;51.194;7.268;2023-05-16T00:25:19;8.85;;;6.20;;
49217;SDS011;35045;51.194;7.268;2023-05-16T00:27:46;10.05;;;6.85;;
49217;SDS011;35045;51.194;7.268;2023-05-16T00:30:12;10.45;;;6.97;;
49217;SDS011;35045;51.194;7.268;2023-05-16T00:32:38;10.93;;;7.30;;
49217;SDS011;35045;51.194;7.268;2023-05-16T00:35:05;9.32;;;6.57;;
49217;SDS011;35045;51.194;7.268;2023-05-16T00:37:31;8.93;;;6.40;;
49217;SDS011;35045;51.194;7.268;2023-05-16T00:39:57;9.65;;;6.35;;
49217;SDS011;35045;51.194;7.268;2023-05-16T00:42:23;9.90;;;5.90;;
49217;SDS011;35045;51.194;7.268;2023-05-16T00:44:50;8.52;;;5.60;;
49217;SDS011;35045;51.194;7.268;2023-05-16T00:47:16;9.68;;;5.95;;
49217;SDS011;35045;51.194;7.268;2023-05-16T00:49:42;9.27;;;5.82;;
49217;SDS011;35045;51.194;7.268;2023-05-16T00:52:08;9.30;;;6.10;;
49217;SDS011;35045;51.194;7.268;2023-05-16T00:54:34;8.32;;;5.22;;
49217;SDS011;35045;51.194;7.268;2023-05-16T00:57:00;8.95;;;6.32;;
49217;SDS011;35045;51.194;7.268;2023-05-16T00:59:26;9.27;;;5.80;;
49217;SDS011;35045;51.194;7.268;2023-05-16T01:01:53;9.15;;;6.13;;
49217;SDS011;35045;51.194;7.268;2023-05-16T01:04:20;9.55;;;6.32;;
49217;SDS011;35045;51.194;7.268;2023-05-16T01:06:46;9.48;;;5.85;;
49217;SDS011;35045;51.194;7.268;2023-05-16T01:09:13;8.40;;;5.43;;
49217;SDS011;35045;51.194;7.268;2023-05-16T01:11:45;8.80;;;5.50;;
49217;SDS011;35045;51.194;7.268;2023-05-16T01:19:43;7.50;;;4.60;;
49217;SDS011;35045;51.194;7.268;2023-05-16T01:22:28;6.80;;;3.90;;
49217;SDS011;35045;51.194;7.268;2023-05-16T01:27:42;7.93;;;3.58;;
49217;SDS011;35045;51.194;7.268;2023-05-16T01:30:12;6.90;;;3.88;;
49217;SDS011;35045;51.194;7.268;2023-05-16T01:32:40;7.07;;;3.60;;
49217;SDS011;35045;51.194;7.268;2023-05-16T01:35:06;6.18;;;3.50;;
49217;SDS011;35045;51.194;7.268;2023-05-16T01:37:36;5.82;;;3.15;;
49217;SDS011;35045;51.194;7.268;2023-05-16T01:40:14;6.93;;;3.55;;
49217;SDS011;35045;51.194;7.268;2023-05-16T01:42:44;6.15;;;3.42;;
49217;SDS011;35045;51.194;7.268;2023-05-16T01:45:34;7.40;;;3.28;;
49217;SDS011;35045;51.194;7.268;2023-05-16T01:48:06;6.07;;;3.30;;
49217;SDS011;35045;51.194;7.268;2023-05-16T01:50:37;6.70;;;3.42;;
49217;SDS011;35045;51.194;7.268;2023-05-16T01:53:08;6.20;;;3.53;;
49217;SDS011;35045;51.194;7.268;2023-05-16T01:55:47;6.05;;;3.30;;
49217;SDS011;35045;51.194;7.268;2023-05-16T01:58:17;6.25;;;2.72;;
49217;SDS011;35045;51.194;7.268;2023-05-16T02:00:45;5.15;;;2.40;;
49217;SDS011;35045;51.194;7.268;2023-05-16T02:03:11;6.63;;;2.55;;
49217;SDS011;35045;51.194;7.268;2023-05-16T02:05:38;6.38;;;2.70;;
49217;SDS011;35045;51.194;7.268;2023-05-16T02:08:04;6.07;;;2.78;;
49217;SDS011;35045;51.194;7.268;2023-05-16T02:10:32;4.57;;;2.40;;
49217;SDS011;35045;51.194;7.268;2023-05-16T02:12:59;5.70;;;3.28;;
49217;SDS011;35045;51.194;7.268;2023-05-16T02:15:25;6.65;;;4.78;;
49217;SDS011;35045;51.194;7.268;2023-05-16T02:17:51;7.10;;;4.65;;
49217;SDS011;35045;51.194;7.268;2023-05-16T02:20:17;8.55;;;5.93;;
49217;SDS011;35045;51.194;7.268;2023-05-16T02:22:43;8.27;;;5.88;;
49217;SDS011;35045;51.194;7.268;2023-05-16T02:25:12;10.20;;;6.07;;
49217;SDS011;35045;51.194;7.268;2023-05-16T02:27:39;6.93;;;5.10;;
49217;SDS011;35045;51.194;7.268;2023-05-16T02:30:08;8.15;;;4.63;;
49217;SDS011;35045;51.194;7.268;2023-05-16T02:32:35;6.32;;;3.85;;
49217;SDS011;35045;51.194;7.268;2023-05-16T02:35:01;7.18;;;4.30;;
49217;SDS011;35045;51.194;7.268;2023-05-16T02:37:28;6.13;;;3.10;;
49217;SDS011;35045;51.194;7.268;2023-05-16T02:39:54;6.30;;;3.13;;
49217;SDS011;35045;51.194;7.268;2023-05-16T02:42:20;6.05;;;2.50;;
49217;SDS011;35045;51.194;7.268;2023-05-16T02:44:46;7.65;;;3.03;;
49217;SDS011;35045;51.194;7.268;2023-05-16T02:47:12;6.80;;;2.70;;
49217;SDS011;35045;51.194;7.268;2023-05-16T02:49:38;8.07;;;2.83;;
49217;SDS011;35045;51.194;7.268;2023-05-16T02:52:04;8.38;;;2.80;;
49217;SDS011;35045;51.194;7.268;2023-05-16T02:54:31;7.97;;;3.03;;
49217;SDS011;35045;51.194;7.268;2023-05-16T02:56:57;8.65;;;2.72;;
49217;SDS011;35045;51.194;7.268;2023-05-16T02:59:23;11.48;;;3.17;;
49217;SDS011;35045;51.194;7.268;2023-05-16T03:01:49;8.77;;;3.63;;
49217;SDS011;35045;51.194;7.268;2023-05-16T03:04:15;11.82;;;3.50;;
49217;SDS011;35045;51.194;7.268;2023-05-16T03:06:41;9.88;;;3.33;;
49217;SDS011;35045;51.194;7.268;2023-05-16T03:09:08;12.13;;;3.83;;
49217;SDS011;35045;51.194;7.268;2023-05-16T03:11:34;10.05;;;3.83;;
49217;SDS011;35045;51.194;7.268;2023-05-16T03:14:01;11.85;;;4.05;;
49217;SDS011;35045;51.194;7.268;2023-05-16T03:16:27;10.95;;;3.85;;
49217;SDS011;35045;51.194;7.268;2023-05-16T03:18:53;9.77;;;4.15;;
49217;SDS011;35045;51.194;7.268;2023-05-16T03:21:20;10.50;;;4.22;;
49217;SDS011;35045;51.194;7.268;2023-05-16T03:23:46;9.45;;;3.83;;
49217;SDS011;35045;51.194;7.268;2023-05-16T03:26:12;11.73;;;4.35;;
49217;SDS011;35045;51.194;7.268;2023-05-16T03:28:38;9.90;;;4.25;;
49217;SDS011;35045;51.194;7.268;2023-05-16T03:31:04;11.00;;;4.80;;
49217;SDS011;35045;51.194;7.268;2023-05-16T03:33:30;12.35;;;3.78;;
49217;SDS011;35045;51.194;7.268;2023-05-16T03:35:57;10.13;;;3.80;;
49217;SDS011;35045;51.194;7.268;2023-05-16T03:38:23;12.57;;;4.68;;
49217;SDS011;35045;51.194;7.268;2023-05-16T03:40:49;10.40;;;4.43;;
49217;SDS011;35045;51.194;7.268;2023-05-16T03:43:15;12.45;;;4.40;;
49217;SDS011;35045;51.194;7.268;2023-05-16T03:45:41;11.65;;;4.70;;
49217;SDS011;35045;51.194;7.268;2023-05-16T03:48:08;10.55;;;4.97;;
49217;SDS011;35045;51.194;7.268;2023-05-16T03:50:35;12.38;;;5.53;;
49217;SDS011;35045;51.194;7.268;2023-05-16T03:53:03;13.60;;;6.32;;
49217;SDS011;35045;51.194;7.268;2023-05-16T03:55:29;14.90;;;6.32;;
49217;SDS011;35045;51.194;7.268;2023-05-16T03:57:55;16.58;;;6.65;;
49217;SDS011;35045;51.194;7.268;2023-05-16T04:00:22;18.33;;;7.05;;
49217;SDS011;35045;51.194;7.268;2023-05-16T04:02:48;18.83;;;6.60;;
49217;SDS011;35045;51.194;7.268;2023-05-16T04:05:14;16.60;;;7.05;;
49217;SDS011;35045;51.194;7.268;2023-05-16T04:07:40;14.52;;;6.07;;
49217;SDS011;35045;51.194;7.268;2023-05-16T04:10:07;17.30;;;6.40;;
49217;SDS011;35045;51.194;7.268;2023-05-16T04:12:33;14.75;;;6.07;;
49217;SDS011;35045;51.194;7.268;2023-05-16T04:15:01;15.27;;;6.60;;
49217;SDS011;35045;51.194;7.268;2023-05-16T04:17:28;14.27;;;6.28;;
49217;SDS011;35045;51.194;7.268;2023-05-16T04:19:54;14.88;;;6.35;;
49217;SDS011;35045;51.194;7.268;2023-05-16T04:22:21;19.60;;;6.90;;
49217;SDS011;35045;51.194;7.268;2023-05-16T04:24:50;16.75;;;6.80;;
49217;SDS011;35045;51.194;7.268;2023-05-16T04:27:16;16.02;;;6.90;;
49217;SDS011;35045;51.194;7.268;2023-05-16T04:29:42;16.77;;;6.88;;
49217;SDS011;35045;51.194;7.268;2023-05-16T04:32:09;16.73;;;7.50;;
49217;SDS011;35045;51.194;7.268;2023-05-16T04:34:35;17.13;;;5.90;;
49217;SDS011;35045;51.194;7.268;2023-05-16T04:37:04;14.27;;;5.72;;
49217;SDS011;35045;51.194;7.268;2023-05-16T04:39:32;13.75;;;5.93;;
49217;SDS011;35045;51.194;7.268;2023-05-16T04:41:59;16.55;;;6.07;;
49217;SDS011;35045;51.194;7.268;2023-05-16T04:44:26;19.35;;;6.15;;
49217;SDS011;35045;51.194;7.268;2023-05-16T04:46:52;13.95;;;5.50;;
49217;SDS011;35045;51.194;7.268;2023-05-16T04:49:20;21.17;;;6.47;;
49217;SDS011;35045;51.194;7.268;2023-05-16T04:51:47;17.25;;;5.70;;
49217;SDS011;35045;51.194;7.268;2023-05-16T04:54:13;12.75;;;5.45;;
49217;SDS011;35045;51.194;7.268;2023-05-16T04:56:40;13.80;;;4.63;;
49217;SDS011;35045;51.194;7.268;2023-05-16T04:59:06;20.40;;;5.63;;
49217;SDS011;35045;51.194;7.268;2023-05-16T05:01:32;13.30;;;5.15;;
49217;SDS011;35045;51.194;7.268;2023-05-16T05:03:58;16.23;;;5.43;;
49217;SDS011;35045;51.194;7.268;2023-05-16T05:06:24;15.63;;;5.13;;
49217;SDS011;35045;51.194;7.268;2023-05-16T05:08:51;18.00;;;4.70;;
49217;SDS011;35045;51.194;7.268;2023-05-16T05:11:19;13.65;;;4.60;;
49217;SDS011;35045;51.194;7.268;2023-05-16T05:13:46;22.35;;;5.40;;
49217;SDS011;35045;51.194;7.268;2023-05-16T05:16:12;16.80;;;5.38;;
49217;SDS011;35045;51.194;7.268;2023-05-16T05:18:38;16.40;;;5.28;;
49217;SDS011;35045;51.194;7.268;2023-05-16T05:21:04;16.27;;;5.95;;
49217;SDS011;35045;51.194;7.268;2023-05-16T05:23:30;11.02;;;4.95;;
49217;SDS011;35045;51.194;7.268;2023-05-16T05:25:59;16.23;;;5.53;;
49217;SDS011;35045;51.194;7.268;2023-05-16T05:28:26;15.82;;;4.90;;
49217;SDS011;35045;51.194;7.268;2023-05-16T05:30:52;14.02;;;5.05;;
49217;SDS011;35045;51.194;7.268;2023-05-16T05:33:19;18.80;;;4.85;;
49217;SDS011;35045;51.194;7.268;2023-05-16T05:35:50;13.00;;;4.93;;
49217;SDS011;35045;51.194;7.268;2023-05-16T05:38:18;12.85;;;4.63;;
49217;SDS011;35045;51.194;7.268;2023-05-16T05:40:45;12.38;;;5.10;;
49217;SDS011;35045;51.194;7.268;2023-05-16T05:43:11;15.10;;;4.90;;
49217;SDS011;35045;51.194;7.268;2023-05-16T05:45:37;13.52;;;5.07;;
49217;SDS011;35045;51.194;7.268;2023-05-16T05:48:03;12.45;;;4.72;;
49217;SDS011;35045;51.194;7.268;2023-05-16T05:50:30;16.30;;;5.30;;
49217;SDS011;35045;51.194;7.268;2023-05-16T05:52:56;15.70;;;4.88;;
49217;SDS011;35045;51.194;7.268;2023-05-16T05:55:22;13.93;;;4.53;;
49217;SDS011;35045;51.194;7.268;2023-05-16T05:57:48;13.88;;;4.90;;
49217;SDS011;35045;51.194;7.268;2023-05-16T06:00:14;13.20;;;5.13;;
49217;SDS011;35045;51.194;7.268;2023-05-16T06:02:41;11.75;;;4.53;;
49217;SDS011;35045;51.194;7.268;2023-05-16T06:05:07;16.92;;;4.90;;
49217;SDS011;35045;51.194;7.268;2023-05-16T06:07:34;13.60;;;4.75;;
49217;SDS011;35045;51.194;7.268;2023-05-16T06:10:00;16.05;;;4.80;;
49217;SDS011;35045;51.194;7.268;2023-05-16T06:12:29;12.57;;;4.50;;
49217;SDS011;35045;51.194;7.268;2023-05-16T06:14:56;15.27;;;4.45;;
49217;SDS011;35045;51.194;7.268;2023-05-16T06:17:22;15.43;;;4.68;;
49217;SDS011;35045;51.194;7.268;2023-05-16T06:19:48;13.95;;;3.67;;
49217;SDS011;35045;51.194;7.268;2023-05-16T06:22:14;14.07;;;4.43;;
49217;SDS011;35045;51.194;7.268;2023-05-16T06:24:40;17.33;;;4.38;;
49217;SDS011;35045;51.194;7.268;2023-05-16T06:27:07;16.15;;;4.40;;
49217;SDS011;35045;51.194;7.268;2023-05-16T06:29:33;17.63;;;4.35;;
49217;SDS011;35045;51.194;7.268;2023-05-16T06:31:59;14.45;;;4.18;;
49217;SDS011;35045;51.194;7.268;2023-05-16T06:34:25;14.50;;;4.75;;
49217;SDS011;35045;51.194;7.268;2023-05-16T06:36:55;18.45;;;4.30;;
49217;SDS011;35045;51.194;7.268;2023-05-16T06:39:21;13.65;;;4.10;;
49217;SDS011;35045;51.194;7.268;2023-05-16T06:41:47;15.68;;;4.55;;
49217;SDS011;35045;51.194;7.268;2023-05-16T06:44:14;14.85;;;4.28;;
49217;SDS011;35045;51.194;7.268;2023-05-16T06:46:40;14.18;;;3.92;;
49217;SDS011;35045;51.194;7.268;2023-05-16T06:49:06;12.13;;;3.70;;
49217;SDS011;35045;51.194;7.268;2023-05-16T06:51:32;13.63;;;3.90;;
49217;SDS011;35045;51.194;7.268;2023-05-16T06:53:58;10.88;;;3.78;;
49217;SDS011;35045;51.194;7.268;2023-05-16T06:56:26;9.02;;;2.97;;
49217;SDS011;35045;51.194;7.268;2023-05-16T06:58:53;15.60;;;4.35;;
49217;SDS011;35045;51.194;7.268;2023-05-16T07:01:19;14.70;;;3.45;;
49217;SDS011;35045;51.194;7.268;2023-05-16T07:03:45;14.63;;;3.78;;
49217;SDS011;35045;51.194;7.268;2023-05-16T07:06:12;13.65;;;3.25;;
49217;SDS011;35045;51.194;7.268;2023-05-16T07:08:38;15.93;;;4.03;;
49217;SDS011;35045;51.194;7.268;2023-05-16T07:11:04;10.40;;;2.95;;
49217;SDS011;35045;51.194;7.268;2023-05-16T07:13:30;13.52;;;3.40;;
49217;SDS011;35045;51.194;7.268;2023-05-16T07:15:57;14.50;;;3.20;;
49217;SDS011;35045;51.194;7.268;2023-05-16T07:18:24;8.13;;;3.08;;
49217;SDS011;35045;51.194;7.268;2023-05-16T07:20:50;10.68;;;2.83;;
49217;SDS011;35045;51.194;7.268;2023-05-16T07:23:16;10.10;;;3.10;;
49217;SDS011;35045;51.194;7.268;2023-05-16T07:25:43;10.75;;;2.67;;
49217;SDS011;35045;51.194;7.268;2023-05-16T07:28:09;11.32;;;3.30;;
49217;SDS011;35045;51.194;7.268;2023-05-16T07:30:35;13.90;;;3.63;;
49217;SDS011;35045;51.194;7.268;2023-05-16T07:33:01;9.43;;;2.75;;
49217;SDS011;35045;51.194;7.268;2023-05-16T07:35:28;11.13;;;2.47;;
49217;SDS011;35045;51.194;7.268;2023-05-16T07:37:54;10.40;;;2.45;;
49217;SDS011;35045;51.194;7.268;2023-05-16T07:40:20;9.98;;;2.33;;
49217;SDS011;35045;51.194;7.268;2023-05-16T07:42:50;11.02;;;2.95;;
49217;SDS011;35045;51.194;7.268;2023-05-16T07:45:16;9.63;;;3.03;;
49217;SDS011;35045;51.194;7.268;2023-05-16T07:47:43;9.80;;;2.90;;
49217;SDS011;35045;51.194;7.268;2023-05-16T07:50:09;13.00;;;2.65;;
49217;SDS011;35045;51.194;7.268;2023-05-16T07:52:36;9.93;;;2.70;;
49217;SDS011;35045;51.194;7.268;2023-05-16T07:55:02;9.88;;;2.47;;
49217;SDS011;35045;51.194;7.268;2023-05-16T07:57:29;9.90;;;2.50;;
49217;SDS011;35045;51.194;7.268;2023-05-16T07:59:55;11.95;;;2.63;;
49217;SDS011;35045;51.194;7.268;2023-05-16T08:02:21;14.18;;;2.80;;
49217;SDS011;35045;51.194;7.268;2023-05-16T08:04:50;10.45;;;3.08;;
49217;SDS011;35045;51.194;7.268;2023-05-16T08:07:16;7.13;;;2.08;;
49217;SDS011;35045;51.194;7.268;2023-05-16T08:09:43;9.27;;;2.50;;
49217;SDS011;35045;51.194;7.268;2023-05-16T08:12:09;11.63;;;2.60;;
49217;SDS011;35045;51.194;7.268;2023-05-16T08:14:35;8.80;;;2.55;;
49217;SDS011;35045;51.194;7.268;2023-05-16T08:17:02;13.48;;;2.22;;
49217;SDS011;35045;51.194;7.268;2023-05-16T08:19:28;9.50;;;2.97;;
49217;SDS011;35045;51.194;7.268;2023-05-16T08:21:54;13.70;;;2.95;;
49217;SDS011;35045;51.194;7.268;2023-05-16T08:24:20;10.60;;;2.20;;
49217;SDS011;35045;51.194;7.268;2023-05-16T08:26:47;9.27;;;1.90;;
49217;SDS011;35045;51.194;7.268;2023-05-16T08:29:13;7.15;;;2.00;;
49217;SDS011;35045;51.194;7.268;2023-05-16T08:31:40;8.68;;;2.58;;
49217;SDS011;35045;51.194;7.268;2023-05-16T08:34:06;8.98;;;2.10;;
49217;SDS011;35045;51.194;7.268;2023-05-16T08:36:34;9.52;;;2.10;;
49217;SDS011;35045;51.194;7.268;2023-05-16T08:39:00;7.10;;;1.92;;
49217;SDS011;35045;51.194;7.268;2023-05-16T08:41:27;8.52;;;2.03;;
49217;SDS011;35045;51.194;7.268;2023-05-16T08:43:54;8.18;;;2.50;;
49217;SDS011;35045;51.194;7.268;2023-05-16T08:46:20;8.38;;;2.53;;
49217;SDS011;35045;51.194;7.268;2023-05-16T08:48:51;8.32;;;2.00;;
49217;SDS011;35045;51.194;7.268;2023-05-16T08:51:18;8.35;;;2.05;;
49217;SDS011;35045;51.194;7.268;2023-05-16T08:53:49;6.18;;;2.17;;
49217;SDS011;35045;51.194;7.268;2023-05-16T08:56:19;7.38;;;2.00;;
49217;SDS011;35045;51.194;7.268;2023-05-16T08:58:47;8.98;;;2.10;;
49217;SDS011;35045;51.194;7.268;2023-05-16T09:01:15;7.20;;;1.83;;
49217;SDS011;35045;51.194;7.268;2023-05-16T09:03:43;11.43;;;2.38;;
49217;SDS011;35045;51.194;7.268;2023-05-16T09:06:10;7.38;;;2.15;;
49217;SDS011;35045;51.194;7.268;2023-05-16T09:08:37;6.88;;;2.00;;
49217;SDS011;35045;51.194;7.268;2023-05-16T09:11:03;7.32;;;1.98;;
49217;SDS011;35045;51.194;7.268;2023-05-16T09:13:29;9.18;;;2.60;;
49217;SDS011;35045;51.194;7.268;2023-05-16T09:16:14;7.25;;;2.20;;
49217;SDS011;35045;51.194;7.268;2023-05-16T09:18:45;9.05;;;2.10;;
49217;SDS011;35045;51.194;7.268;2023-05-16T09:21:17;8.00;;;1.92;;
49217;SDS011;35045;51.194;7.268;2023-05-16T09:23:44;8.48;;;1.95;;
49217;SDS011;35045;51.194;7.268;2023-05-16T09:26:14;5.82;;;1.98;;
49217;SDS011;35045;51.194;7.268;2023-05-16T09:28:41;9.38;;;2.53;;
49217;SDS011;35045;51.194;7.268;2023-05-16T09:31:21;6.72;;;1.73;;
49217;SDS011;35045;51.194;7.268;2023-05-16T09:33:51;6.78;;;1.70;;
49217;SDS011;35045;51.194;7.268;2023-05-16T09:36:18;6.57;;;1.67;;
49217;SDS011;35045;51.194;7.268;2023-05-16T09:38:44;8.45;;;1.73;;
49217;SDS011;35045;51.194;7.268;2023-05-16T09:41:10;8.90;;;1.98;;
49217;SDS011;35045;51.194;7.268;2023-05-16T09:43:38;6.63;;;1.80;;
49217;SDS011;35045;51.194;7.268;2023-05-16T09:46:06;9.05;;;2.03;;
49217;SDS011;35045;51.194;7.268;2023-05-16T09:48:32;8.73;;;1.73;;
49217;SDS011;35045;51.194;7.268;2023-05-16T09:50:59;8.10;;;1.52;;
49217;SDS011;35045;51.194;7.268;2023-05-16T09:53:29;8.02;;;1.70;;
49217;SDS011;35045;51.194;7.268;2023-05-16T09:56:04;5.43;;;1.50;;
49217;SDS011;35045;51.194;7.268;2023-05-16T09:58:40;6.60;;;1.67;;
49217;SDS011;35045;51.194;7.268;2023-05-16T10:01:08;7.22;;;1.48;;
49217;SDS011;35045;51.194;7.268;2023-05-16T10:03:39;5.93;;;1.63;;
49217;SDS011;35045;51.194;7.268;2023-05-16T10:06:07;6.50;;;1.67;;
49217;SDS011;35045;51.194;7.268;2023-05-16T10:08:35;8.20;;;1.63;;
49217;SDS011;35045;51.194;7.268;2023-05-16T10:11:04;6.22;;;1.40;;
49217;SDS011;35045;51.194;7.268;2023-05-16T10:13:34;6.75;;;1.85;;
49217;SDS011;35045;51.194;7.268;2023-05-16T10:16:11;8.55;;;1.60;;
49217;SDS011;35045;51.194;7.268;2023-05-16T10:18:39;7.03;;;1.60;;
49217;SDS011;35045;51.194;7.268;2023-05-16T10:21:08;5.07;;;1.50;;
49217;SDS011;35045;51.194;7.268;2023-05-16T10:23:42;8.65;;;1.80;;
49217;SDS011;35045;51.194;7.268;2023-05-16T10:26:12;6.80;;;1.50;;
49217;SDS011;35045;51.194;7.268;2023-05-16T10:28:40;5.53;;;1.40;;
49217;SDS011;35045;51.194;7.268;2023-05-16T10:31:07;8.82;;;1.70;;
49217;SDS011;35045;51.194;7.268;2023-05-16T10:33:35;7.70;;;1.75;;
49217;SDS011;35045;51.194;7.268;2023-05-16T10:36:02;5.85;;;1.38;;
49217;SDS011;35045;51.194;7.268;2023-05-16T10:38:30;5.35;;;1.50;;
49217;SDS011;35045;51.194;7.268;2023-05-16T10:40:56;6.05;;;1.42;;
49217;SDS011;35045;51.194;7.268;2023-05-16T10:43:24;5.55;;;1.75;;
49217;SDS011;35045;51.194;7.268;2023-05-16T10:45:55;8.43;;;1.75;;
49217;SDS011;35045;51.194;7.268;2023-05-16T10:48:29;6.80;;;1.35;;
49217;SDS011;35045;51.194;7.268;2023-05-16T10:51:00;7.25;;;1.65;;
49217;SDS011;35045;51.194;7.268;2023-05-16T11:01:24;5.38;;;1.20;;
49217;SDS011;35045;51.194;7.268;2023-05-16T11:11:38;6.45;;;1.35;;
49217;SDS011;35045;51.194;7.268;2023-05-16T11:14:19;6.35;;;1.50;;
49217;SDS011;35045;51.194;7.268;2023-05-16T11:16:48;5.97;;;1.58;;
49217;SDS011;35045;51.194;7.268;2023-05-16T11:19:31;8.70;;;1.48;;
49217;SDS011;35045;51.194;7.268;2023-05-16T11:22:10;6.07;;;1.38;;
49217;SDS011;35045;51.194;7.268;2023-05-16T11:24:48;6.20;;;1.60;;
49217;SDS011;35045;51.194;7.268;2023-05-16T11:27:18;5.68;;;1.40;;
49217;SDS011;35045;51.194;7.268;2023-05-16T11:29:50;6.00;;;1.52;;
49217;SDS011;35045;51.194;7.268;2023-05-16T11:32:20;5.53;;;1.30;;
49217;SDS011;35045;51.194;7.268;2023-05-16T11:34:48;7.13;;;1.83;;
49217;SDS011;35045;51.194;7.268;2023-05-16T11:37:15;6.22;;;1.30;;
49217;SDS011;35045;51.194;7.268;2023-05-16T11:39:43;4.90;;;1.40;;
49217;SDS011;35045;51.194;7.268;2023-05-16T11:42:09;10.40;;;1.83;;
49217;SDS011;35045;51.194;7.268;2023-05-16T11:44:36;4.60;;;1.15;;
49217;SDS011;35045;51.194;7.268;2023-05-16T11:47:02;6.85;;;1.50;;
49217;SDS011;35045;51.194;7.268;2023-05-16T11:49:28;6.28;;;1.35;;
49217;SDS011;35045;51.194;7.268;2023-05-16T11:51:55;6.18;;;1.45;;
49217;SDS011;35045;51.194;7.268;2023-05-16T11:54:22;6.38;;;1.27;;
49217;SDS011;35045;51.194;7.268;2023-05-16T11:56:52;6.88;;;1.55;;
49217;SDS011;35045;51.194;7.268;2023-05-16T11:59:19;6.20;;;1.40;;
49217;SDS011;35045;51.194;7.268;2023-05-16T12:01:45;7.03;;;1.35;;
49217;SDS011;35045;51.194;7.268;2023-05-16T12:04:15;6.68;;;1.48;;
49217;SDS011;35045;51.194;7.268;2023-05-16T12:06:42;5.65;;;1.33;;
49217;SDS011;35045;51.194;7.268;2023-05-16T12:09:13;5.05;;;1.17;;
49217;SDS011;35045;51.194;7.268;2023-05-16T12:11:42;5.85;;;1.30;;
49217;SDS011;35045;51.194;7.268;2023-05-16T12:14:09;6.18;;;1.63;;
49217;SDS011;35045;51.194;7.268;2023-05-16T12:16:37;6.10;;;1.30;;
49217;SDS011;35045;51.194;7.268;2023-05-16T12:19:06;5.60;;;1.20;;
49217;SDS011;35045;51.194;7.268;2023-05-16T12:21:34;5.18;;;1.20;;
49217;SDS011;35045;51.194;7.268;2023-05-16T12:24:00;5.13;;;1.27;;
49217;SDS011;35045;51.194;7.268;2023-05-16T12:26:30;4.68;;;1.30;;
49217;SDS011;35045;51.194;7.268;2023-05-16T12:28:59;6.35;;;1.38;;
49217;SDS011;35045;51.194;7.268;2023-05-16T12:31:28;5.47;;;1.40;;
49217;SDS011;35045;51.194;7.268;2023-05-16T12:33:58;7.03;;;1.30;;
49217;SDS011;35045;51.194;7.268;2023-05-16T12:36:24;5.85;;;1.33;;
49217;SDS011;35045;51.194;7.268;2023-05-16T12:38:53;5.88;;;1.55;;
49217;SDS011;35045;51.194;7.268;2023-05-16T12:41:20;5.30;;;1.20;;
49217;SDS011;35045;51.194;7.268;2023-05-16T12:43:48;5.78;;;1.70;;
49217;SDS011;35045;51.194;7.268;2023-05-16T12:46:14;5.65;;;1.58;;
49217;SDS011;35045;51.194;7.268;2023-05-16T12:48:41;5.88;;;1.48;;
49217;SDS011;35045;51.194;7.268;2023-05-16T12:51:09;5.55;;;1.45;;
49217;SDS011;35045;51.194;7.268;2023-05-16T12:53:40;5.20;;;1.20;;
49217;SDS011;35045;51.194;7.268;2023-05-16T12:56:08;4.07;;;1.33;;
49217;SDS011;35045;51.194;7.268;2023-05-16T12:58:35;3.70;;;1.10;;
49217;SDS011;35045;51.194;7.268;2023-05-16T13:01:02;2.92;;;0.82;;
49217;SDS011;35045;51.194;7.268;2023-05-16T13:03:29;4.93;;;0.98;;
49217;SDS011;35045;51.194;7.268;2023-05-16T13:05:56;3.63;;;1.02;;
49217;SDS011;35045;51.194;7.268;2023-05-16T13:08:23;3.92;;;0.93;;
49217;SDS011;35045;51.194;7.268;2023-05-16T13:10:49;2.78;;;0.68;;
49217;SDS011;35045;51.194;7.268;2023-05-16T13:13:16;4.05;;;0.90;;
49217;SDS011;35045;51.194;7.268;2023-05-16T13:15:46;4.05;;;1.05;;
49217;SDS011;35045;51.194;7.268;2023-05-16T13:18:13;3.63;;;0.80;;
49217;SDS011;35045;51.194;7.268;2023-05-16T13:20:40;3.60;;;0.90;;
49217;SDS011;35045;51.194;7.268;2023-05-16T13:23:06;4.20;;;1.00;;
49217;SDS011;35045;51.194;7.268;2023-05-16T13:25:32;3.08;;;1.20;;
49217;SDS011;35045;51.194;7.268;2023-05-16T13:27:59;4.97;;;0.90;;
49217;SDS011;35045;51.194;7.268;2023-05-16T13:30:25;5.35;;;1.02;;
49217;SDS011;35045;51.194;7.268;2023-05-16T13:32:51;4.07;;;0.93;;
49217;SDS011;35045;51.194;7.268;2023-05-16T13:35:17;4.40;;;0.82;;
49217;SDS011;35045;51.194;7.268;2023-05-16T13:37:44;2.65;;;0.82;;
49217;SDS011;35045;51.194;7.268;2023-05-16T13:40:10;4.18;;;0.90;;
49217;SDS011;35045;51.194;7.268;2023-05-16T13:42:36;3.30;;;0.88;;
49217;SDS011;35045;51.194;7.268;2023-05-16T13:45:03;3.95;;;1.00;;
49217;SDS011;35045;51.194;7.268;2023-05-16T13:47:31;4.65;;;1.15;;
49217;SDS011;35045;51.194;7.268;2023-05-16T13:49:58;4.85;;;1.35;;
49217;SDS011;35045;51.194;7.268;2023-05-16T13:52:29;5.07;;;1.45;;
49217;SDS011;35045;51.194;7.268;2023-05-16T13:54:55;3.83;;;1.15;;
49217;SDS011;35045;51.194;7.268;2023-05-16T13:57:21;3.83;;;1.05;;
49217;SDS011;35045;51.194;7.268;2023-05-16T13:59:48;5.63;;;1.55;;
49217;SDS011;35045;51.194;7.268;2023-05-16T14:02:28;4.82;;;1.10;;
49217;SDS011;35045;51.194;7.268;2023-05-16T14:04:54;3.53;;;0.90;;
49217;SDS011;35045;51.194;7.268;2023-05-16T14:07:21;4.60;;;0.90;;
49217;SDS011;35045;51.194;7.268;2023-05-16T14:09:47;4.18;;;0.90;;
49217;SDS011;35045;51.194;7.268;2023-05-16T14:12:13;3.55;;;1.00;;
49217;SDS011;35045;51.194;7.268;2023-05-16T14:14:39;4.40;;;1.08;;
49217;SDS011;35045;51.194;7.268;2023-05-16T14:17:06;2.65;;;0.85;;
49217;SDS011;35045;51.194;7.268;2023-05-16T14:19:32;4.22;;;0.85;;
49217;SDS011;35045;51.194;7.268;2023-05-16T14:21:59;3.75;;;0.88;;
49217;SDS011;35045;51.194;7.268;2023-05-16T14:24:28;5.20;;;1.13;;
49217;SDS011;35045;51.194;7.268;2023-05-16T14:26:54;4.25;;;1.08;;
49217;SDS011;35045;51.194;7.268;2023-05-16T14:29:20;4.40;;;1.17;;
49217;SDS011;35045;51.194;7.268;2023-05-16T14:31:47;5.50;;;1.30;;
49217;SDS011;35045;51.194;7.268;2023-05-16T14:34:13;3.92;;;0.88;;
49217;SDS011;35045;51.194;7.268;2023-05-16T14:36:39;5.53;;;1.38;;
49217;SDS011;35045;51.194;7.268;2023-05-16T14:39:05;4.97;;;1.10;;
49217;SDS011;35045;51.194;7.268;2023-05-16T14:41:33;5.10;;;1.45;;
49217;SDS011;35045;51.194;7.268;2023-05-16T14:43:59;6.88;;;1.70;;
49217;SDS011;35045;51.194;7.268;2023-05-16T14:46:25;6.07;;;1.25;;
49217;SDS011;35045;51.194;7.268;2023-05-16T14:48:51;3.92;;;1.13;;
49217;SDS011;35045;51.194;7.268;2023-05-16T14:51:17;4.15;;;1.00;;
49217;SDS011;35045;51.194;7.268;2023-05-16T14:53:44;4.35;;;1.00;;
49217;SDS011;35045;51.194;7.268;2023-05-16T14:56:11;5.80;;;1.15;;
49217;SDS011;35045;51.194;7.268;2023-05-16T14:58:37;6.15;;;1.30;;
49217;SDS011;35045;51.194;7.268;2023-05-16T15:01:03;5.22;;;1.30;;
49217;SDS011;35045;51.194;7.268;2023-05-16T15:03:30;5.88;;;1.30;;
49217;SDS011;35045;51.194;7.268;2023-05-16T15:06:00;6.57;;;1.50;;
49217;SDS011;35045;51.194;7.268;2023-05-16T15:08:26;6.72;;;1.20;;